This demonstration page uses our WeatherBlox Daily Observations layout. Learn more.

39.01783, -85.05884

Hourly Observations for July 1, 2019

Temp ( °F °C ) Dew Point ( °F °C ) Humidity (%) Winds ( mph kmh ) Pressure ( in mb ) Visibility ( mi km ) Precip ( " mm )
12:52 am 00:52 Mostly Cloudy 73 22.8 68 20 84 84 WSW 6 9 29.97 1015 10 16.09344 0 0
1:52 am 01:52 Partly Cloudy 71 21.7 68 20 90 90 WSW 5 7 29.97 1015 10 16.09344 0 0
2:52 am 02:52 Partly Cloudy 70 21.1 67 19.4 90 90 W 10 17 29.97 1015 10 16.09344 0 0
3:52 am 03:52 Mostly Cloudy 69 20.6 66 18.9 90 90 WSW 3 6 29.94 1014 8 12.874752 0 0
4:52 am 04:52 Mostly Cloudy 68 20 66 18.9 93 93 Calm 29.94 1014 8 12.874752 0 0
5:52 am 05:52 Mostly Cloudy with Patchy Fog 67 19.4 66 18.9 97 97 S 3 6 29.97 1015 7 11.265408 0 0
6:52 am 06:52 Mostly Cloudy with Mist and Fog 67 19.4 65 18.3 93 93 SSW 3 6 29.97 1015 6 9.656064 0 0
7:52 am 07:52 Mostly Cloudy 70 21.1 67 19.4 90 90 W 3 6 30 1016 8 12.874752 0 0
8:52 am 08:52 Partly Cloudy 75 23.9 67 19.4 76 76 SW 3 6 30 1016 10 16.09344 0 0
9:52 am 09:52 Mostly Cloudy 78 25.6 68 20 71 71 WSW 3 6 30 1016 10 16.09344 0 0
10:52 am 10:52 Partly Cloudy 81 27.2 67 19.4 62 62 W 7 11 30 1016 10 16.09344 0 0
11:52 am 11:52 Partly Cloudy 83 28.3 68 20 61 61 WSW 8 13 30 1016 10 16.09344 0 0
12:52 pm 12:52 Partly Cloudy 86 30 67 19.4 53 53 WSW 8 13 30 1016 10 16.09344 0 0
1:52 pm 13:52 Partly Cloudy 87 30.6 67 19.4 51 51 W 9 15 29.97 1015 10 16.09344 0 0
2:52 pm 14:52 Partly Cloudy 89 31.7 67 19.4 48 48 WNW 13 20 29.97 1015 10 16.09344 0 0
3:52 pm 15:52 Partly Cloudy 88 31.1 64 17.8 45 45 WNW 12 19 29.94 1014 10 16.09344 0 0
4:52 pm 16:52 Mostly Cloudy 90 32.2 66 18.9 45 45 WNW 13 20 29.94 1014 10 16.09344 0 0
5:52 pm 17:52 Partly Cloudy 90 32.2 66 18.9 45 45 NNW 12 19 29.91 1013 10 16.09344 0 0
6:52 pm 18:52 Partly Cloudy 89 31.7 66 18.9 47 47 W 5 7 29.91 1013 10 16.09344 0 0
7:52 pm 19:52 Partly Cloudy 86 30 67 19.4 53 53 WSW 5 7 29.91 1013 10 16.09344 0 0
8:52 pm 20:52 Partly Cloudy 82 27.8 67 19.4 60 60 SW 6 9 29.91 1013 10 16.09344 0 0
9:52 pm 21:52 Partly Cloudy 81 27.2 69 20.6 67 67 SW 6 9 29.91 1013 10 16.09344 0 0
10:52 pm 22:52 Mostly Clear 79 26.1 70 21.1 74 74 W 7 11 29.94 1014 10 16.09344 0 0
11:52 pm 23:52 Clear 79 26.1 70 21.1 74 74 WSW 6 9 29.94 1014 10 16.09344 0 0

Powered by AerisWeather